Almond, North Carolina
Current Conditions -  °F | °C
As of 5:35 PM on Friday 28 Nov 2014 (Local Time) from KRHP Reporting Station
Clear Clear  
Wind Chill: 36°   Ceiling: Unl
Heat Index: 36°   Visibility: 10mi
Dew Point: 24°   Wind: 3mph
Humidity: 62%   Direction: 320°NW
Pressure: 30.24"   Gusts: NA
Location:  35.37°N, 83.57°W
Report Text: KRHP 282235Z AUTO 32003KT 10SM CLR 02/M04 A3024 RMK AO2 T00241042
Loading
Personal Weather Stations






























Interactive Weather Map New forecast layout! Learn more

10-Day Weather Forecast

Advertisements
Track Severe Weather on mobile